sensor_id;sensor_type;location;lat;lon;timestamp;temperature;humidity
17687;DHT22;8962;52.538;13.266;2023-05-07T00:01:58;9.50;99.90
17687;DHT22;8962;52.538;13.266;2023-05-07T00:04:26;9.50;99.90
17687;DHT22;8962;52.538;13.266;2023-05-07T00:06:54;9.50;99.90
17687;DHT22;8962;52.538;13.266;2023-05-07T00:09:21;9.50;99.90
17687;DHT22;8962;52.538;13.266;2023-05-07T00:11:49;9.50;99.90
17687;DHT22;8962;52.538;13.266;2023-05-07T00:14:17;9.50;99.90
17687;DHT22;8962;52.538;13.266;2023-05-07T00:16:45;9.50;99.90
17687;DHT22;8962;52.538;13.266;2023-05-07T00:19:12;9.50;99.90
17687;DHT22;8962;52.538;13.266;2023-05-07T00:21:39;9.50;99.90
17687;DHT22;8962;52.538;13.266;2023-05-07T00:24:06;9.60;99.90
17687;DHT22;8962;52.538;13.266;2023-05-07T00:26:34;9.60;99.90
17687;DHT22;8962;52.538;13.266;2023-05-07T00:29:02;9.60;99.90
17687;DHT22;8962;52.538;13.266;2023-05-07T00:31:34;9.60;99.90
17687;DHT22;8962;52.538;13.266;2023-05-07T00:34:01;9.60;99.90
17687;DHT22;8962;52.538;13.266;2023-05-07T00:36:29;9.60;99.90
17687;DHT22;8962;52.538;13.266;2023-05-07T00:38:58;9.60;99.90
17687;DHT22;8962;52.538;13.266;2023-05-07T00:41:28;9.60;99.90
17687;DHT22;8962;52.538;13.266;2023-05-07T00:44:00;9.60;99.90
17687;DHT22;8962;52.538;13.266;2023-05-07T00:46:28;9.60;99.90
17687;DHT22;8962;52.538;13.266;2023-05-07T00:49:01;9.60;99.90
17687;DHT22;8962;52.538;13.266;2023-05-07T00:51:29;9.60;99.90
17687;DHT22;8962;52.538;13.266;2023-05-07T00:53:56;9.70;99.90
17687;DHT22;8962;52.538;13.266;2023-05-07T00:56:24;9.70;99.90
17687;DHT22;8962;52.538;13.266;2023-05-07T00:58:52;9.70;99.90
17687;DHT22;8962;52.538;13.266;2023-05-07T01:01:19;9.70;99.90
17687;DHT22;8962;52.538;13.266;2023-05-07T01:03:47;9.70;99.90
17687;DHT22;8962;52.538;13.266;2023-05-07T01:06:18;9.70;99.90
17687;DHT22;8962;52.538;13.266;2023-05-07T01:08:49;9.70;99.90
17687;DHT22;8962;52.538;13.266;2023-05-07T01:11:19;9.70;99.90
17687;DHT22;8962;52.538;13.266;2023-05-07T01:13:48;9.70;99.90
17687;DHT22;8962;52.538;13.266;2023-05-07T01:16:16;9.60;99.90
17687;DHT22;8962;52.538;13.266;2023-05-07T01:18:44;9.70;99.90
17687;DHT22;8962;52.538;13.266;2023-05-07T01:21:17;9.60;99.90
17687;DHT22;8962;52.538;13.266;2023-05-07T01:23:54;9.60;99.90
17687;DHT22;8962;52.538;13.266;2023-05-07T01:26:22;9.60;99.90
17687;DHT22;8962;52.538;13.266;2023-05-07T01:28:50;9.50;99.90
17687;DHT22;8962;52.538;13.266;2023-05-07T01:31:19;9.50;99.90
17687;DHT22;8962;52.538;13.266;2023-05-07T01:33:48;9.60;99.90
17687;DHT22;8962;52.538;13.266;2023-05-07T01:36:18;9.60;99.90
17687;DHT22;8962;52.538;13.266;2023-05-07T01:38:50;9.60;99.90
17687;DHT22;8962;52.538;13.266;2023-05-07T01:41:19;9.50;99.90
17687;DHT22;8962;52.538;13.266;2023-05-07T01:43:48;9.50;99.90
17687;DHT22;8962;52.538;13.266;2023-05-07T01:46:18;9.50;99.90
17687;DHT22;8962;52.538;13.266;2023-05-07T01:48:47;9.50;99.90
17687;DHT22;8962;52.538;13.266;2023-05-07T01:51:15;9.50;99.90
17687;DHT22;8962;52.538;13.266;2023-05-07T01:53:45;9.50;99.90
17687;DHT22;8962;52.538;13.266;2023-05-07T01:56:19;9.60;99.90
17687;DHT22;8962;52.538;13.266;2023-05-07T01:58:47;9.60;99.90
17687;DHT22;8962;52.538;13.266;2023-05-07T02:01:16;9.50;99.90
17687;DHT22;8962;52.538;13.266;2023-05-07T02:03:44;9.50;99.90
17687;DHT22;8962;52.538;13.266;2023-05-07T02:06:19;9.50;99.90
17687;DHT22;8962;52.538;13.266;2023-05-07T02:08:47;9.50;99.90
17687;DHT22;8962;52.538;13.266;2023-05-07T02:11:15;9.50;99.90
17687;DHT22;8962;52.538;13.266;2023-05-07T02:13:44;9.50;99.90
17687;DHT22;8962;52.538;13.266;2023-05-07T02:16:12;9.40;99.90
17687;DHT22;8962;52.538;13.266;2023-05-07T02:18:40;9.50;99.90
17687;DHT22;8962;52.538;13.266;2023-05-07T02:21:07;9.40;99.90
17687;DHT22;8962;52.538;13.266;2023-05-07T02:23:34;9.50;99.90
17687;DHT22;8962;52.538;13.266;2023-05-07T02:26:01;9.50;99.90
17687;DHT22;8962;52.538;13.266;2023-05-07T02:28:28;9.50;99.90
17687;DHT22;8962;52.538;13.266;2023-05-07T02:31:02;9.50;99.90
17687;DHT22;8962;52.538;13.266;2023-05-07T02:33:30;9.50;99.90
17687;DHT22;8962;52.538;13.266;2023-05-07T02:36:05;9.40;99.90
17687;DHT22;8962;52.538;13.266;2023-05-07T02:38:34;9.50;99.90
17687;DHT22;8962;52.538;13.266;2023-05-07T02:41:01;9.50;99.90
17687;DHT22;8962;52.538;13.266;2023-05-07T02:43:30;9.50;99.90
17687;DHT22;8962;52.538;13.266;2023-05-07T02:46:02;9.50;99.90
17687;DHT22;8962;52.538;13.266;2023-05-07T02:48:30;9.40;99.90
17687;DHT22;8962;52.538;13.266;2023-05-07T02:51:00;9.50;99.90
17687;DHT22;8962;52.538;13.266;2023-05-07T02:53:27;9.50;99.90
17687;DHT22;8962;52.538;13.266;2023-05-07T02:55:57;9.40;99.90
17687;DHT22;8962;52.538;13.266;2023-05-07T02:58:25;9.40;99.90
17687;DHT22;8962;52.538;13.266;2023-05-07T03:00:53;9.40;99.90
17687;DHT22;8962;52.538;13.266;2023-05-07T03:03:31;9.50;99.90
17687;DHT22;8962;52.538;13.266;2023-05-07T03:05:58;9.40;99.90
17687;DHT22;8962;52.538;13.266;2023-05-07T03:08:25;9.50;99.90
17687;DHT22;8962;52.538;13.266;2023-05-07T03:10:52;9.50;99.90
17687;DHT22;8962;52.538;13.266;2023-05-07T03:13:20;9.50;99.90
17687;DHT22;8962;52.538;13.266;2023-05-07T03:15:48;9.40;99.90
17687;DHT22;8962;52.538;13.266;2023-05-07T03:18:15;9.50;99.90
17687;DHT22;8962;52.538;13.266;2023-05-07T03:20:47;9.40;99.90
17687;DHT22;8962;52.538;13.266;2023-05-07T03:23:16;9.40;99.90
17687;DHT22;8962;52.538;13.266;2023-05-07T03:25:44;9.50;99.90
17687;DHT22;8962;52.538;13.266;2023-05-07T03:28:11;9.50;99.90
17687;DHT22;8962;52.538;13.266;2023-05-07T03:30:44;9.50;99.90
17687;DHT22;8962;52.538;13.266;2023-05-07T03:33:11;9.50;99.90
17687;DHT22;8962;52.538;13.266;2023-05-07T03:35:39;9.40;99.90
17687;DHT22;8962;52.538;13.266;2023-05-07T03:38:08;9.50;99.90
17687;DHT22;8962;52.538;13.266;2023-05-07T03:40:38;9.40;99.90
17687;DHT22;8962;52.538;13.266;2023-05-07T03:43:06;9.50;99.90
17687;DHT22;8962;52.538;13.266;2023-05-07T03:45:37;9.50;99.90
17687;DHT22;8962;52.538;13.266;2023-05-07T03:48:10;9.50;99.90
17687;DHT22;8962;52.538;13.266;2023-05-07T03:50:38;9.50;99.90
17687;DHT22;8962;52.538;13.266;2023-05-07T03:53:08;9.40;99.90
17687;DHT22;8962;52.538;13.266;2023-05-07T03:55:38;9.50;99.90
17687;DHT22;8962;52.538;13.266;2023-05-07T03:58:06;9.50;99.90
17687;DHT22;8962;52.538;13.266;2023-05-07T04:00:33;9.50;99.90
17687;DHT22;8962;52.538;13.266;2023-05-07T04:03:12;9.50;99.90
17687;DHT22;8962;52.538;13.266;2023-05-07T04:05:40;9.50;99.90
17687;DHT22;8962;52.538;13.266;2023-05-07T04:08:09;9.50;99.90
17687;DHT22;8962;52.538;13.266;2023-05-07T04:10:40;9.50;99.90
17687;DHT22;8962;52.538;13.266;2023-05-07T04:13:10;9.40;99.90
17687;DHT22;8962;52.538;13.266;2023-05-07T04:15:37;9.40;99.90
17687;DHT22;8962;52.538;13.266;2023-05-07T04:18:11;9.40;99.90
17687;DHT22;8962;52.538;13.266;2023-05-07T04:20:41;9.50;99.90
17687;DHT22;8962;52.538;13.266;2023-05-07T04:23:12;9.50;99.90
17687;DHT22;8962;52.538;13.266;2023-05-07T04:25:40;9.50;99.90
17687;DHT22;8962;52.538;13.266;2023-05-07T04:28:16;9.50;99.90
17687;DHT22;8962;52.538;13.266;2023-05-07T04:30:43;9.50;99.90
17687;DHT22;8962;52.538;13.266;2023-05-07T04:33:11;9.50;99.90
17687;DHT22;8962;52.538;13.266;2023-05-07T04:35:40;9.50;99.90
17687;DHT22;8962;52.538;13.266;2023-05-07T04:38:16;9.50;99.90
17687;DHT22;8962;52.538;13.266;2023-05-07T04:40:46;9.50;99.90
17687;DHT22;8962;52.538;13.266;2023-05-07T04:43:18;9.50;99.90
17687;DHT22;8962;52.538;13.266;2023-05-07T04:45:50;9.50;99.90
17687;DHT22;8962;52.538;13.266;2023-05-07T04:48:17;9.50;99.90
17687;DHT22;8962;52.538;13.266;2023-05-07T04:50:48;9.50;99.90
17687;DHT22;8962;52.538;13.266;2023-05-07T04:53:18;9.60;99.90
17687;DHT22;8962;52.538;13.266;2023-05-07T04:55:45;9.60;99.90
17687;DHT22;8962;52.538;13.266;2023-05-07T04:58:13;9.70;99.90
17687;DHT22;8962;52.538;13.266;2023-05-07T05:00:45;9.70;99.90
17687;DHT22;8962;52.538;13.266;2023-05-07T05:03:14;9.70;99.90
17687;DHT22;8962;52.538;13.266;2023-05-07T05:05:41;9.70;99.90
17687;DHT22;8962;52.538;13.266;2023-05-07T05:08:09;9.70;99.90
17687;DHT22;8962;52.538;13.266;2023-05-07T05:10:41;9.80;99.90
17687;DHT22;8962;52.538;13.266;2023-05-07T05:13:10;9.80;99.90
17687;DHT22;8962;52.538;13.266;2023-05-07T05:15:38;9.80;99.90
17687;DHT22;8962;52.538;13.266;2023-05-07T05:18:05;9.80;99.90
17687;DHT22;8962;52.538;13.266;2023-05-07T05:20:34;9.90;99.90
17687;DHT22;8962;52.538;13.266;2023-05-07T05:23:03;9.90;99.90
17687;DHT22;8962;52.538;13.266;2023-05-07T05:25:31;9.90;99.90
17687;DHT22;8962;52.538;13.266;2023-05-07T05:28:00;9.90;99.90
17687;DHT22;8962;52.538;13.266;2023-05-07T05:30:29;10.00;99.90
17687;DHT22;8962;52.538;13.266;2023-05-07T05:32:56;10.20;99.90
17687;DHT22;8962;52.538;13.266;2023-05-07T05:35:23;10.20;99.90
17687;DHT22;8962;52.538;13.266;2023-05-07T05:37:51;10.30;99.90
17687;DHT22;8962;52.538;13.266;2023-05-07T05:40:21;10.30;99.90
17687;DHT22;8962;52.538;13.266;2023-05-07T05:42:49;10.40;99.90
17687;DHT22;8962;52.538;13.266;2023-05-07T05:45:19;10.40;99.90
17687;DHT22;8962;52.538;13.266;2023-05-07T05:47:46;10.50;99.90
17687;DHT22;8962;52.538;13.266;2023-05-07T05:50:14;10.50;99.90
17687;DHT22;8962;52.538;13.266;2023-05-07T05:52:41;10.60;99.90
17687;DHT22;8962;52.538;13.266;2023-05-07T05:55:11;10.60;99.90
17687;DHT22;8962;52.538;13.266;2023-05-07T05:57:38;10.80;99.90
17687;DHT22;8962;52.538;13.266;2023-05-07T06:00:07;10.90;99.90
17687;DHT22;8962;52.538;13.266;2023-05-07T06:02:46;10.80;99.90
17687;DHT22;8962;52.538;13.266;2023-05-07T06:05:19;10.90;99.90
17687;DHT22;8962;52.538;13.266;2023-05-07T06:07:47;10.90;99.90
17687;DHT22;8962;52.538;13.266;2023-05-07T06:10:15;10.80;99.90
17687;DHT22;8962;52.538;13.266;2023-05-07T06:12:42;10.80;99.90
17687;DHT22;8962;52.538;13.266;2023-05-07T06:15:10;10.70;99.90
17687;DHT22;8962;52.538;13.266;2023-05-07T06:17:39;10.70;99.90
17687;DHT22;8962;52.538;13.266;2023-05-07T06:20:10;10.80;99.90
17687;DHT22;8962;52.538;13.266;2023-05-07T06:22:38;10.90;99.90
17687;DHT22;8962;52.538;13.266;2023-05-07T06:25:07;11.00;99.90
17687;DHT22;8962;52.538;13.266;2023-05-07T06:27:37;11.10;99.90
17687;DHT22;8962;52.538;13.266;2023-05-07T06:30:08;11.10;99.90
17687;DHT22;8962;52.538;13.266;2023-05-07T06:32:36;11.10;99.90
17687;DHT22;8962;52.538;13.266;2023-05-07T06:35:04;11.20;99.90
17687;DHT22;8962;52.538;13.266;2023-05-07T06:37:38;11.30;99.90
17687;DHT22;8962;52.538;13.266;2023-05-07T06:40:12;11.50;99.90
17687;DHT22;8962;52.538;13.266;2023-05-07T06:42:41;11.60;99.90
17687;DHT22;8962;52.538;13.266;2023-05-07T06:45:27;11.50;99.90
17687;DHT22;8962;52.538;13.266;2023-05-07T06:47:55;11.60;99.90
17687;DHT22;8962;52.538;13.266;2023-05-07T06:50:23;11.60;99.90
17687;DHT22;8962;52.538;13.266;2023-05-07T06:52:56;11.60;99.90
17687;DHT22;8962;52.538;13.266;2023-05-07T06:55:23;11.60;99.90
17687;DHT22;8962;52.538;13.266;2023-05-07T06:57:53;11.60;99.90
17687;DHT22;8962;52.538;13.266;2023-05-07T07:00:22;11.70;99.90
17687;DHT22;8962;52.538;13.266;2023-05-07T07:02:53;11.80;99.90
17687;DHT22;8962;52.538;13.266;2023-05-07T07:05:23;12.10;99.90
17687;DHT22;8962;52.538;13.266;2023-05-07T07:07:51;12.00;99.90
17687;DHT22;8962;52.538;13.266;2023-05-07T07:10:22;12.20;99.90
17687;DHT22;8962;52.538;13.266;2023-05-07T07:12:51;12.40;99.90
17687;DHT22;8962;52.538;13.266;2023-05-07T07:15:20;12.50;99.90
17687;DHT22;8962;52.538;13.266;2023-05-07T07:17:48;12.50;99.90
17687;DHT22;8962;52.538;13.266;2023-05-07T07:20:16;12.80;99.90
17687;DHT22;8962;52.538;13.266;2023-05-07T07:22:45;12.80;99.90
17687;DHT22;8962;52.538;13.266;2023-05-07T07:25:14;12.80;99.90
17687;DHT22;8962;52.538;13.266;2023-05-07T07:27:44;12.90;99.90
17687;DHT22;8962;52.538;13.266;2023-05-07T07:30:13;13.00;99.90
17687;DHT22;8962;52.538;13.266;2023-05-07T07:32:42;13.20;99.90
17687;DHT22;8962;52.538;13.266;2023-05-07T07:35:09;13.20;99.90
17687;DHT22;8962;52.538;13.266;2023-05-07T07:37:38;13.20;99.90
17687;DHT22;8962;52.538;13.266;2023-05-07T07:40:06;13.20;99.90
17687;DHT22;8962;52.538;13.266;2023-05-07T07:42:35;13.40;99.90
17687;DHT22;8962;52.538;13.266;2023-05-07T07:45:08;13.80;99.90
17687;DHT22;8962;52.538;13.266;2023-05-07T07:47:39;13.70;99.90
17687;DHT22;8962;52.538;13.266;2023-05-07T07:50:08;13.60;99.90
17687;DHT22;8962;52.538;13.266;2023-05-07T07:52:37;13.70;99.90
17687;DHT22;8962;52.538;13.266;2023-05-07T07:55:06;13.90;99.90
17687;DHT22;8962;52.538;13.266;2023-05-07T07:57:37;14.00;99.90
17687;DHT22;8962;52.538;13.266;2023-05-07T08:00:09;13.90;99.90
17687;DHT22;8962;52.538;13.266;2023-05-07T08:02:42;13.90;99.90
17687;DHT22;8962;52.538;13.266;2023-05-07T08:05:14;14.20;99.90
17687;DHT22;8962;52.538;13.266;2023-05-07T08:07:44;14.30;99.90
17687;DHT22;8962;52.538;13.266;2023-05-07T08:10:12;14.50;99.90
17687;DHT22;8962;52.538;13.266;2023-05-07T08:12:48;14.60;99.90
17687;DHT22;8962;52.538;13.266;2023-05-07T08:15:17;14.50;99.90
17687;DHT22;8962;52.538;13.266;2023-05-07T08:17:47;14.60;99.90
17687;DHT22;8962;52.538;13.266;2023-05-07T08:20:17;14.60;99.90
17687;DHT22;8962;52.538;13.266;2023-05-07T08:22:44;15.10;99.90
17687;DHT22;8962;52.538;13.266;2023-05-07T08:25:11;15.10;99.90
17687;DHT22;8962;52.538;13.266;2023-05-07T08:27:38;15.00;99.90
17687;DHT22;8962;52.538;13.266;2023-05-07T08:30:07;15.10;99.90
17687;DHT22;8962;52.538;13.266;2023-05-07T08:32:37;15.30;99.90
17687;DHT22;8962;52.538;13.266;2023-05-07T08:35:06;15.40;99.90
17687;DHT22;8962;52.538;13.266;2023-05-07T08:37:33;15.50;99.90
17687;DHT22;8962;52.538;13.266;2023-05-07T08:40:01;15.60;99.90
17687;DHT22;8962;52.538;13.266;2023-05-07T08:42:35;15.80;99.90
17687;DHT22;8962;52.538;13.266;2023-05-07T08:45:09;15.70;99.90
17687;DHT22;8962;52.538;13.266;2023-05-07T08:47:44;16.10;99.90
17687;DHT22;8962;52.538;13.266;2023-05-07T08:50:15;16.10;99.90
17687;DHT22;8962;52.538;13.266;2023-05-07T08:52:44;16.30;99.90
17687;DHT22;8962;52.538;13.266;2023-05-07T08:55:12;16.20;99.90
17687;DHT22;8962;52.538;13.266;2023-05-07T08:57:40;16.30;99.90
17687;DHT22;8962;52.538;13.266;2023-05-07T09:00:10;16.40;99.90
17687;DHT22;8962;52.538;13.266;2023-05-07T09:02:39;16.40;99.90
17687;DHT22;8962;52.538;13.266;2023-05-07T09:05:11;16.10;99.90
17687;DHT22;8962;52.538;13.266;2023-05-07T09:07:39;15.90;99.90
17687;DHT22;8962;52.538;13.266;2023-05-07T09:10:09;15.70;99.90
17687;DHT22;8962;52.538;13.266;2023-05-07T09:12:38;15.50;99.90
17687;DHT22;8962;52.538;13.266;2023-05-07T09:15:08;15.60;99.90
17687;DHT22;8962;52.538;13.266;2023-05-07T09:17:36;16.00;99.90
17687;DHT22;8962;52.538;13.266;2023-05-07T09:20:04;16.10;99.90
17687;DHT22;8962;52.538;13.266;2023-05-07T09:22:35;16.10;99.90
17687;DHT22;8962;52.538;13.266;2023-05-07T09:25:07;16.10;99.90
17687;DHT22;8962;52.538;13.266;2023-05-07T09:27:36;15.90;99.90
17687;DHT22;8962;52.538;13.266;2023-05-07T09:30:04;15.70;99.90
17687;DHT22;8962;52.538;13.266;2023-05-07T09:32:35;15.80;99.90
17687;DHT22;8962;52.538;13.266;2023-05-07T09:35:05;16.00;99.90
17687;DHT22;8962;52.538;13.266;2023-05-07T09:37:35;16.10;99.90
17687;DHT22;8962;52.538;13.266;2023-05-07T09:40:03;16.30;99.90
17687;DHT22;8962;52.538;13.266;2023-05-07T09:42:35;16.40;99.90
17687;DHT22;8962;52.538;13.266;2023-05-07T09:45:07;16.50;99.90
17687;DHT22;8962;52.538;13.266;2023-05-07T09:47:39;16.20;99.90
17687;DHT22;8962;52.538;13.266;2023-05-07T09:50:12;16.50;99.90
17687;DHT22;8962;52.538;13.266;2023-05-07T09:52:44;16.60;99.90
17687;DHT22;8962;52.538;13.266;2023-05-07T09:55:13;16.80;99.90
17687;DHT22;8962;52.538;13.266;2023-05-07T09:57:43;16.80;99.90
17687;DHT22;8962;52.538;13.266;2023-05-07T10:00:12;17.20;99.90
17687;DHT22;8962;52.538;13.266;2023-05-07T10:02:49;17.00;99.90
17687;DHT22;8962;52.538;13.266;2023-05-07T10:05:23;17.10;99.90
17687;DHT22;8962;52.538;13.266;2023-05-07T10:07:55;17.00;99.90
17687;DHT22;8962;52.538;13.266;2023-05-07T10:10:24;16.70;99.90
17687;DHT22;8962;52.538;13.266;2023-05-07T10:12:53;16.60;99.90
17687;DHT22;8962;52.538;13.266;2023-05-07T10:15:29;16.30;99.90
17687;DHT22;8962;52.538;13.266;2023-05-07T10:18:00;16.60;99.90
17687;DHT22;8962;52.538;13.266;2023-05-07T10:20:28;16.60;99.90
17687;DHT22;8962;52.538;13.266;2023-05-07T10:22:58;16.60;99.90
17687;DHT22;8962;52.538;13.266;2023-05-07T10:25:35;16.70;99.90
17687;DHT22;8962;52.538;13.266;2023-05-07T10:28:11;16.90;99.90
17687;DHT22;8962;52.538;13.266;2023-05-07T10:30:52;17.00;99.90
17687;DHT22;8962;52.538;13.266;2023-05-07T10:33:30;16.90;99.90
17687;DHT22;8962;52.538;13.266;2023-05-07T10:36:01;17.00;99.90
17687;DHT22;8962;52.538;13.266;2023-05-07T10:38:33;17.20;99.90
17687;DHT22;8962;52.538;13.266;2023-05-07T10:41:01;17.30;99.90
17687;DHT22;8962;52.538;13.266;2023-05-07T10:43:40;17.40;99.90
17687;DHT22;8962;52.538;13.266;2023-05-07T10:46:10;17.60;99.90
17687;DHT22;8962;52.538;13.266;2023-05-07T10:49:09;17.90;99.90
17687;DHT22;8962;52.538;13.266;2023-05-07T10:52:12;17.80;99.90
17687;DHT22;8962;52.538;13.266;2023-05-07T10:55:20;17.60;99.90
17687;DHT22;8962;52.538;13.266;2023-05-07T10:58:26;17.90;99.90
17687;DHT22;8962;52.538;13.266;2023-05-07T11:01:12;18.20;99.90
17687;DHT22;8962;52.538;13.266;2023-05-07T11:06:38;18.60;99.90
17687;DHT22;8962;52.538;13.266;2023-05-07T11:09:09;18.20;99.90
17687;DHT22;8962;52.538;13.266;2023-05-07T11:11:50;17.90;99.90
17687;DHT22;8962;52.538;13.266;2023-05-07T11:14:44;18.10;99.90
17687;DHT22;8962;52.538;13.266;2023-05-07T11:17:23;18.00;99.90
17687;DHT22;8962;52.538;13.266;2023-05-07T11:20:04;17.90;99.90
17687;DHT22;8962;52.538;13.266;2023-05-07T11:22:38;18.00;99.90
17687;DHT22;8962;52.538;13.266;2023-05-07T11:25:22;18.20;99.90
17687;DHT22;8962;52.538;13.266;2023-05-07T11:28:04;18.30;99.90
17687;DHT22;8962;52.538;13.266;2023-05-07T11:30:32;18.40;99.90
17687;DHT22;8962;52.538;13.266;2023-05-07T11:33:00;18.00;99.90
17687;DHT22;8962;52.538;13.266;2023-05-07T11:35:27;18.20;99.90
17687;DHT22;8962;52.538;13.266;2023-05-07T11:37:59;17.90;99.90
17687;DHT22;8962;52.538;13.266;2023-05-07T11:40:33;18.80;99.90
17687;DHT22;8962;52.538;13.266;2023-05-07T11:43:10;19.80;99.90
17687;DHT22;8962;52.538;13.266;2023-05-07T11:45:37;19.90;99.90
17687;DHT22;8962;52.538;13.266;2023-05-07T11:48:05;19.70;99.90
17687;DHT22;8962;52.538;13.266;2023-05-07T11:50:33;19.20;99.90
17687;DHT22;8962;52.538;13.266;2023-05-07T11:53:07;18.50;99.90
17687;DHT22;8962;52.538;13.266;2023-05-07T11:55:35;18.40;99.90
17687;DHT22;8962;52.538;13.266;2023-05-07T11:58:06;18.60;99.90
17687;DHT22;8962;52.538;13.266;2023-05-07T12:00:33;18.30;99.90
17687;DHT22;8962;52.538;13.266;2023-05-07T12:03:04;19.00;99.90
17687;DHT22;8962;52.538;13.266;2023-05-07T12:05:31;20.50;99.90
17687;DHT22;8962;52.538;13.266;2023-05-07T12:07:58;21.50;99.90
17687;DHT22;8962;52.538;13.266;2023-05-07T12:10:26;22.60;97.20
17687;DHT22;8962;52.538;13.266;2023-05-07T12:12:54;23.00;97.20
17687;DHT22;8962;52.538;13.266;2023-05-07T12:15:27;23.80;92.10
17687;DHT22;8962;52.538;13.266;2023-05-07T12:17:55;21.60;93.30
17687;DHT22;8962;52.538;13.266;2023-05-07T12:20:22;20.30;95.80
17687;DHT22;8962;52.538;13.266;2023-05-07T12:22:51;20.20;96.80
17687;DHT22;8962;52.538;13.266;2023-05-07T12:25:19;20.60;95.90
17687;DHT22;8962;52.538;13.266;2023-05-07T12:27:51;20.40;96.50
17687;DHT22;8962;52.538;13.266;2023-05-07T12:30:18;20.30;97.30
17687;DHT22;8962;52.538;13.266;2023-05-07T12:32:52;19.80;97.50
17687;DHT22;8962;52.538;13.266;2023-05-07T12:35:26;19.40;98.80
17687;DHT22;8962;52.538;13.266;2023-05-07T12:37:57;19.10;99.40
17687;DHT22;8962;52.538;13.266;2023-05-07T12:40:35;20.00;98.50
17687;DHT22;8962;52.538;13.266;2023-05-07T12:43:03;21.60;95.20
17687;DHT22;8962;52.538;13.266;2023-05-07T12:45:30;22.50;93.70
17687;DHT22;8962;52.538;13.266;2023-05-07T12:48:02;22.30;92.90
17687;DHT22;8962;52.538;13.266;2023-05-07T12:50:33;22.10;92.60
17687;DHT22;8962;52.538;13.266;2023-05-07T12:53:03;22.30;91.50
17687;DHT22;8962;52.538;13.266;2023-05-07T12:55:31;23.40;89.00
17687;DHT22;8962;52.538;13.266;2023-05-07T12:58:01;22.90;89.10
17687;DHT22;8962;52.538;13.266;2023-05-07T13:00:35;22.20;90.20
17687;DHT22;8962;52.538;13.266;2023-05-07T13:03:04;21.00;92.60
17687;DHT22;8962;52.538;13.266;2023-05-07T13:05:31;20.90;92.50
17687;DHT22;8962;52.538;13.266;2023-05-07T13:07:59;20.30;92.60
17687;DHT22;8962;52.538;13.266;2023-05-07T13:10:27;19.70;93.90
17687;DHT22;8962;52.538;13.266;2023-05-07T13:12:54;19.30;96.00
17687;DHT22;8962;52.538;13.266;2023-05-07T13:15:21;19.10;96.50
17687;DHT22;8962;52.538;13.266;2023-05-07T13:17:48;19.40;96.70
17687;DHT22;8962;52.538;13.266;2023-05-07T13:20:17;19.80;96.00
17687;DHT22;8962;52.538;13.266;2023-05-07T13:22:44;19.20;96.30
17687;DHT22;8962;52.538;13.266;2023-05-07T13:25:12;19.80;96.10
17687;DHT22;8962;52.538;13.266;2023-05-07T13:27:39;20.10;95.30
17687;DHT22;8962;52.538;13.266;2023-05-07T13:30:07;20.10;95.40
17687;DHT22;8962;52.538;13.266;2023-05-07T13:32:34;19.40;96.30
17687;DHT22;8962;52.538;13.266;2023-05-07T13:35:01;19.10;96.00
17687;DHT22;8962;52.538;13.266;2023-05-07T13:37:30;19.00;96.30
17687;DHT22;8962;52.538;13.266;2023-05-07T13:39:58;19.40;96.10
17687;DHT22;8962;52.538;13.266;2023-05-07T13:42:25;20.50;94.50
17687;DHT22;8962;52.538;13.266;2023-05-07T13:44:53;22.20;91.20
17687;DHT22;8962;52.538;13.266;2023-05-07T13:47:20;23.50;86.30
17687;DHT22;8962;52.538;13.266;2023-05-07T13:49:47;24.60;79.20
17687;DHT22;8962;52.538;13.266;2023-05-07T13:52:15;25.40;72.40
17687;DHT22;8962;52.538;13.266;2023-05-07T13:54:44;25.70;66.90
17687;DHT22;8962;52.538;13.266;2023-05-07T13:57:12;25.40;66.90
17687;DHT22;8962;52.538;13.266;2023-05-07T13:59:40;25.40;65.50
17687;DHT22;8962;52.538;13.266;2023-05-07T14:02:07;25.80;64.10
17687;DHT22;8962;52.538;13.266;2023-05-07T14:04:35;25.80;61.80
17687;DHT22;8962;52.538;13.266;2023-05-07T14:07:03;24.70;63.70
17687;DHT22;8962;52.538;13.266;2023-05-07T14:09:30;23.50;68.30
17687;DHT22;8962;52.538;13.266;2023-05-07T14:11:59;23.40;68.40
17687;DHT22;8962;52.538;13.266;2023-05-07T14:14:27;24.70;64.50
17687;DHT22;8962;52.538;13.266;2023-05-07T14:16:54;25.60;60.70
17687;DHT22;8962;52.538;13.266;2023-05-07T14:19:21;24.80;60.00
17687;DHT22;8962;52.538;13.266;2023-05-07T14:21:49;23.60;64.20
17687;DHT22;8962;52.538;13.266;2023-05-07T14:24:17;22.90;67.40
17687;DHT22;8962;52.538;13.266;2023-05-07T14:26:45;23.60;66.40
17687;DHT22;8962;52.538;13.266;2023-05-07T14:29:14;22.80;66.00
17687;DHT22;8962;52.538;13.266;2023-05-07T14:31:44;21.80;69.60
17687;DHT22;8962;52.538;13.266;2023-05-07T14:34:11;21.10;73.20
17687;DHT22;8962;52.538;13.266;2023-05-07T14:36:38;20.90;75.10
17687;DHT22;8962;52.538;13.266;2023-05-07T14:39:05;20.30;77.60
17687;DHT22;8962;52.538;13.266;2023-05-07T14:41:34;20.10;79.90
17687;DHT22;8962;52.538;13.266;2023-05-07T14:44:01;19.80;80.50
17687;DHT22;8962;52.538;13.266;2023-05-07T14:46:31;19.20;82.30
17687;DHT22;8962;52.538;13.266;2023-05-07T14:48:59;19.20;85.20
17687;DHT22;8962;52.538;13.266;2023-05-07T14:51:26;19.20;86.60
17687;DHT22;8962;52.538;13.266;2023-05-07T14:53:54;19.50;86.40
17687;DHT22;8962;52.538;13.266;2023-05-07T14:56:21;19.60;84.90
17687;DHT22;8962;52.538;13.266;2023-05-07T14:58:49;19.20;88.20
17687;DHT22;8962;52.538;13.266;2023-05-07T15:01:16;19.00;88.60
17687;DHT22;8962;52.538;13.266;2023-05-07T15:03:45;18.80;87.40
17687;DHT22;8962;52.538;13.266;2023-05-07T15:06:13;18.50;89.50
17687;DHT22;8962;52.538;13.266;2023-05-07T15:08:41;18.20;90.00
17687;DHT22;8962;52.538;13.266;2023-05-07T15:11:08;18.20;90.80
17687;DHT22;8962;52.538;13.266;2023-05-07T15:13:35;18.10;90.10
17687;DHT22;8962;52.538;13.266;2023-05-07T15:16:03;18.10;90.90
17687;DHT22;8962;52.538;13.266;2023-05-07T15:18:31;18.10;91.00
17687;DHT22;8962;52.538;13.266;2023-05-07T15:21:00;17.90;91.40
17687;DHT22;8962;52.538;13.266;2023-05-07T15:23:27;17.90;91.60
17687;DHT22;8962;52.538;13.266;2023-05-07T15:25:54;17.50;92.40
17687;DHT22;8962;52.538;13.266;2023-05-07T15:28:21;17.30;93.90
17687;DHT22;8962;52.538;13.266;2023-05-07T15:30:50;17.60;94.10
17687;DHT22;8962;52.538;13.266;2023-05-07T15:33:17;19.70;91.00
17687;DHT22;8962;52.538;13.266;2023-05-07T15:35:44;21.10;84.80
17687;DHT22;8962;52.538;13.266;2023-05-07T15:38:12;21.20;82.20
17687;DHT22;8962;52.538;13.266;2023-05-07T15:40:40;20.60;82.50
17687;DHT22;8962;52.538;13.266;2023-05-07T15:43:10;19.90;86.50
17687;DHT22;8962;52.538;13.266;2023-05-07T15:45:39;19.20;89.90
17687;DHT22;8962;52.538;13.266;2023-05-07T15:48:08;19.00;90.60
17687;DHT22;8962;52.538;13.266;2023-05-07T15:50:35;18.60;91.40
17687;DHT22;8962;52.538;13.266;2023-05-07T15:53:02;18.30;92.50
17687;DHT22;8962;52.538;13.266;2023-05-07T15:55:31;17.80;94.00